Time;durP1;ratioP1;P1;durP2;ratioP2;P2;SDS_P1;SDS_P2;PMS_P1;PMS_P2;Temp;Humidity;BMP_temperature;BMP_pressure;BME280_temperature;BME280_humidity;BME280_pressure;Samples;Min_cycle;Max_cycle;Signal;HPM_P1;HPM_P2
2021/08/16 02:46:59;;;;;;;;;;;19.80;99.90;;;;;;5;36054370;41316152;-86
2021/08/16 02:50:13;;;;;;;;;;;19.80;99.90;;;;;;5;36016310;41267072;-87
2021/08/16 02:53:30;;;;;;;;;;;19.90;99.90;;;;;;5;36015218;41267230;-87
2021/08/16 02:56:50;;;;;;;;;;;19.90;99.90;;;;;;5;36013484;41268512;-87
2021/08/16 03:00:12;;;;;;;;;;;19.80;99.90;;;;;;5;36013655;42016502;-87
2021/08/16 03:03:26;;;;;;;;;;;19.60;99.90;;;;;;5;36015017;41265715;-87
2021/08/16 03:06:43;;;;;;;;;;;19.70;99.90;;;;;;5;36014235;41265610;-87
2021/08/16 03:10:03;;;;;;;;;;;19.70;99.90;;;;;;5;36013097;41266879;-86
2021/08/16 03:13:23;;;;;;;;;;;19.60;99.90;;;;;;5;36013715;41265688;-86
2021/08/16 03:16:37;;;;;;;;;;;19.80;99.90;;;;;;5;36015338;41265916;-86
2021/08/16 03:19:54;;;;;;;;;;;19.80;99.90;;;;;;5;36014421;41266297;-86
2021/08/16 03:23:13;;;;;;;;;;;19.90;99.90;;;;;;5;36014708;41265841;-86
2021/08/16 03:26:33;;;;;;;;;;;19.90;99.90;;;;;;5;36014354;41266497;-86
2021/08/16 03:29:47;;;;;;;;;;;19.80;99.90;;;;;;5;36014648;41266259;-86
2021/08/16 03:33:06;;;;;;;;;;;19.90;99.90;;;;;;5;36014080;42016694;-86
2021/08/16 03:36:25;;;;;;;;;;;19.90;99.90;;;;;;5;36013951;41266335;-87
2021/08/16 03:39:45;;;;;;;;;;;19.90;99.90;;;;;;5;36013291;41266822;-86
2021/08/16 03:42:59;;;;;;;;;;;19.90;99.90;;;;;;5;36013777;41266803;-86
2021/08/16 03:46:16;;;;;;;;;;;19.80;99.90;;;;;;5;36013485;41266712;-86
2021/08/16 03:49:35;;;;;;;;;;;19.80;99.90;;;;;;5;36014401;41265489;-86
2021/08/16 03:52:55;;;;;;;;;;;19.80;99.90;;;;;;5;36015236;41265447;-86
2021/08/16 03:56:10;;;;;;;;;;;19.80;99.90;;;;;;5;36015160;41266727;-86
2021/08/16 03:59:28;;;;;;;;;;;19.80;99.90;;;;;;5;36013355;41265643;-86
2021/08/16 04:02:47;;;;;;;;;;;19.80;99.90;;;;;;5;36014805;41267095;-86
2021/08/16 04:06:08;;;;;;;;;;;19.60;99.90;;;;;;5;36013304;42017115;-86
2021/08/16 04:09:59;;;;;;;;;;;19.50;99.90;;;;;;5;36013706;41266835;-84
2021/08/16 04:25:04;;;;;;;;;;;19.40;99.90;;;;;;5;36012759;41264728;-86
2021/08/16 04:28:21;;;;;;;;;;;19.50;99.90;;;;;;5;36012257;41265099;-86
2021/08/16 04:31:41;;;;;;;;;;;19.60;99.90;;;;;;5;36012279;41265804;-87
2021/08/16 04:35:00;;;;;;;;;;;19.50;99.90;;;;;;5;36013474;41267793;-86
2021/08/16 04:38:19;;;;;;;;;;;19.40;99.90;;;;;;5;36015852;41265190;-86
2021/08/16 04:41:37;;;;;;;;;;;19.30;99.90;;;;;;5;36013557;42016835;-86
2021/08/16 04:44:57;;;;;;;;;;;19.30;99.90;;;;;;5;36013811;41267531;-85
2021/08/16 04:48:16;;;;;;;;;;;19.20;99.90;;;;;;5;36015047;41266677;-85
2021/08/16 04:51:30;;;;;;;;;;;19.00;99.90;;;;;;5;36013930;41268787;-86
2021/08/16 04:54:47;;;;;;;;;;;19.00;99.90;;;;;;5;36013790;41267477;-86
2021/08/16 04:58:07;;;;;;;;;;;19.00;99.90;;;;;;5;36013665;41266778;-86
2021/08/16 05:01:26;;;;;;;;;;;19.00;99.90;;;;;;5;36015293;41266743;-85
2021/08/16 05:04:40;;;;;;;;;;;19.10;99.90;;;;;;5;36015667;41267414;-85
2021/08/16 05:07:59;;;;;;;;;;;19.00;99.90;;;;;;5;36013377;41266628;-85
2021/08/16 05:11:22;;;;;;;;;;;19.10;99.90;;;;;;5;36016464;41267360;-85
2021/08/16 05:14:43;;;;;;;;;;;19.20;99.90;;;;;;5;36015861;42015699;-84
2021/08/16 05:18:03;;;;;;;;;;;19.30;99.90;;;;;;5;36014555;41266593;-84
2021/08/16 05:21:21;;;;;;;;;;;19.40;99.90;;;;;;5;36014734;41266482;-84
2021/08/16 05:24:40;;;;;;;;;;;19.50;99.90;;;;;;5;36014605;41266166;-84
2021/08/16 05:28:00;;;;;;;;;;;19.40;99.90;;;;;;5;36013674;41266395;-85
2021/08/16 05:31:14;;;;;;;;;;;19.40;99.90;;;;;;5;36016190;41266351;-85
2021/08/16 05:34:31;;;;;;;;;;;19.30;99.90;;;;;;5;36013763;41267468;-86
2021/08/16 05:37:50;;;;;;;;;;;19.20;99.90;;;;;;5;36015011;41266254;-86
2021/08/16 05:41:10;;;;;;;;;;;19.30;99.90;;;;;;5;36015808;41265645;-85
2021/08/16 05:44:24;;;;;;;;;;;19.40;99.90;;;;;;5;36015012;41267763;-85
2021/08/16 05:47:43;;;;;;;;;;;19.40;99.90;;;;;;5;36013280;42016989;-83
2021/08/16 05:51:02;;;;;;;;;;;19.40;99.90;;;;;;5;36014607;41266869;-86
2021/08/16 05:54:22;;;;;;;;;;;19.40;99.90;;;;;;5;36015995;41267166;-84
2021/08/16 05:57:36;;;;;;;;;;;19.40;99.90;;;;;;5;36014555;41267404;-84
2021/08/16 06:00:53;;;;;;;;;;;19.40;99.90;;;;;;5;36014583;41267281;-84
2021/08/16 06:04:12;;;;;;;;;;;19.40;99.90;;;;;;5;36014979;41267261;-86
2021/08/16 06:07:32;;;;;;;;;;;19.50;99.90;;;;;;5;36013141;41266286;-86
2021/08/16 06:10:46;;;;;;;;;;;19.40;99.90;;;;;;5;36013273;41266365;-86
2021/08/16 06:14:03;;;;;;;;;;;19.30;99.90;;;;;;5;36015448;41267221;-86
2021/08/16 06:17:23;;;;;;;;;;;19.30;99.90;;;;;;5;36014279;41266259;-86
2021/08/16 06:20:43;;;;;;;;;;;19.20;99.90;;;;;;5;36015041;42016662;-85
2021/08/16 06:23:58;;;;;;;;;;;19.10;99.90;;;;;;5;36014856;41266232;-86
2021/08/16 06:27:15;;;;;;;;;;;19.10;99.90;;;;;;5;36013296;41269201;-85
2021/08/16 06:30:35;;;;;;;;;;;19.10;99.90;;;;;;5;36014846;41267926;-86
2021/08/16 06:33:54;;;;;;;;;;;19.10;99.90;;;;;;5;36014172;41266003;-87
2021/08/16 06:37:08;;;;;;;;;;;19.10;99.90;;;;;;5;36013812;41266064;-87
2021/08/16 06:40:26;;;;;;;;;;;19.00;99.90;;;;;;5;36015535;41266100;-87
2021/08/16 06:43:47;;;;;;;;;;;19.00;99.90;;;;;;5;36014204;41267228;-87
2021/08/16 06:47:06;;;;;;;;;;;19.00;99.90;;;;;;5;36013573;41267369;-87
2021/08/16 06:50:20;;;;;;;;;;;19.00;99.90;;;;;;5;36014868;41265812;-86
2021/08/16 06:53:39;;;;;;;;;;;18.90;99.90;;;;;;5;36013730;42016298;-87
2021/08/16 06:57:00;;;;;;;;;;;18.90;99.90;;;;;;5;36013903;41267291;-86
2021/08/16 07:00:19;;;;;;;;;;;18.90;99.90;;;;;;5;36014113;41267082;-86
2021/08/16 07:03:33;;;;;;;;;;;18.90;99.90;;;;;;5;36014376;41266938;-86
2021/08/16 07:06:51;;;;;;;;;;;18.90;99.90;;;;;;5;36015167;41267589;-86
2021/08/16 07:10:10;;;;;;;;;;;19.00;99.90;;;;;;5;36013175;41268115;-86
2021/08/16 07:13:31;;;;;;;;;;;19.00;99.90;;;;;;5;36014544;41265625;-85
2021/08/16 07:16:45;;;;;;;;;;;19.10;99.90;;;;;;5;36014522;41266270;-86
2021/08/16 07:20:03;;;;;;;;;;;19.20;99.90;;;;;;5;36013651;41267434;-87
2021/08/16 07:23:22;;;;;;;;;;;19.30;99.90;;;;;;5;36015441;41266571;-86
2021/08/16 07:26:43;;;;;;;;;;;19.30;99.90;;;;;;5;36014206;42016851;-87
2021/08/16 07:29:57;;;;;;;;;;;19.20;99.90;;;;;;5;36014341;41265536;-86
2021/08/16 07:33:14;;;;;;;;;;;19.20;99.90;;;;;;5;36014717;41266554;-86
2021/08/16 07:36:34;;;;;;;;;;;19.30;99.90;;;;;;5;36015391;41266494;-87
2021/08/16 07:39:53;;;;;;;;;;;19.20;99.90;;;;;;5;36013937;41266474;-86
2021/08/16 07:43:07;;;;;;;;;;;19.30;99.90;;;;;;5;36014532;41266343;-87
2021/08/16 07:46:24;;;;;;;;;;;19.40;99.90;;;;;;5;36013445;41265901;-86
2021/08/16 07:49:44;;;;;;;;;;;19.60;99.90;;;;;;5;36013539;41266680;-87
2021/08/16 07:53:03;;;;;;;;;;;19.70;99.90;;;;;;5;36014233;41267074;-87
2021/08/16 07:56:17;;;;;;;;;;;19.80;99.90;;;;;;5;36013768;41265550;-87
2021/08/16 07:59:36;;;;;;;;;;;19.80;99.90;;;;;;5;36014545;42016455;-87
2021/08/16 08:02:56;;;;;;;;;;;19.80;99.90;;;;;;5;36013184;41266532;-87
2021/08/16 08:06:16;;;;;;;;;;;19.90;99.90;;;;;;5;36014472;41266334;-87
2021/08/16 08:09:31;;;;;;;;;;;20.00;99.90;;;;;;5;36014373;41266959;-87
2021/08/16 08:12:48;;;;;;;;;;;20.10;99.90;;;;;;5;36013928;41265923;-88
2021/08/16 08:16:08;;;;;;;;;;;20.00;99.90;;;;;;5;36013641;41267219;-87
2021/08/16 08:19:27;;;;;;;;;;;20.00;99.90;;;;;;5;36013376;41267193;-88
2021/08/16 08:22:42;;;;;;;;;;;19.90;99.90;;;;;;5;36013639;41267187;-88
2021/08/16 08:25:59;;;;;;;;;;;19.90;99.90;;;;;;5;36014070;41266180;-87
2021/08/16 08:29:18;;;;;;;;;;;19.90;99.90;;;;;;5;36014498;41265624;-87
2021/08/16 08:32:43;;;;;;;;;;;19.80;99.90;;;;;;5;36013677;42017150;-87
2021/08/16 08:35:57;;;;;;;;;;;19.80;99.90;;;;;;5;36014651;41267856;-87
2021/08/16 08:39:15;;;;;;;;;;;19.80;99.90;;;;;;5;36013846;41266528;-88
2021/08/16 08:42:35;;;;;;;;;;;19.80;99.90;;;;;;5;36013961;41267186;-87
2021/08/16 08:45:57;;;;;;;;;;;19.80;99.90;;;;;;5;36013090;41268448;-86
2021/08/16 08:49:13;;;;;;;;;;;19.60;99.90;;;;;;5;36014745;41265854;-87
2021/08/16 08:52:31;;;;;;;;;;;19.30;99.90;;;;;;5;36014297;41266213;-86
2021/08/16 08:55:50;;;;;;;;;;;19.30;99.90;;;;;;5;36014479;41266580;-87
2021/08/16 08:59:11;;;;;;;;;;;19.20;99.90;;;;;;5;36013249;41266722;-87
2021/08/16 09:02:25;;;;;;;;;;;19.20;99.90;;;;;;5;36014001;41267155;-87
2021/08/16 09:05:51;;;;;;;;;;;19.20;99.90;;;;;;5;36014418;42016261;-88
2021/08/16 09:09:11;;;;;;;;;;;19.20;99.90;;;;;;5;36013030;41267042;-88
2021/08/16 09:12:33;;;;;;;;;;;19.30;99.90;;;;;;5;36014121;41266131;-88
2021/08/16 09:15:47;;;;;;;;;;;19.50;99.90;;;;;;5;36013647;41267242;-88
2021/08/16 09:19:14;;;;;;;;;;;19.60;99.90;;;;;;5;36014716;41266877;-87
2021/08/16 09:22:36;;;;;;;;;;;19.60;99.90;;;;;;5;36014720;41266597;-88
2021/08/16 09:25:57;;;;;;;;;;;19.60;99.90;;;;;;5;36014162;41265950;-88
2021/08/16 09:29:12;;;;;;;;;;;19.60;99.90;;;;;;5;36014907;41265625;-87
2021/08/16 09:32:31;;;;;;;;;;;19.50;99.90;;;;;;5;36013589;41265588;-87
2021/08/16 09:35:58;;;;;;;;;;;19.60;99.90;;;;;;5;36013477;41266377;-87
2021/08/16 09:39:20;;;;;;;;;;;19.70;99.90;;;;;;5;36013793;42016234;-87
2021/08/16 09:42:40;;;;;;;;;;;19.80;99.90;;;;;;5;36015262;41266403;-87
2021/08/16 09:45:57;;;;;;;;;;;19.80;99.90;;;;;;5;36013999;41266605;-88
2021/08/16 09:49:21;;;;;;;;;;;19.90;99.90;;;;;;5;36014637;41265566;-88
2021/08/16 09:52:41;;;;;;;;;;;20.00;99.90;;;;;;5;36012933;41266754;-88
2021/08/16 09:56:01;;;;;;;;;;;20.10;99.90;;;;;;5;36014186;41266008;-87
2021/08/16 09:59:18;;;;;;;;;;;20.00;99.90;;;;;;5;36014306;41267795;-88
2021/08/16 10:02:37;;;;;;;;;;;19.90;99.90;;;;;;5;36014625;41266147;-87
2021/08/16 10:05:57;;;;;;;;;;;19.90;99.90;;;;;;5;36014951;41266673;-88
2021/08/16 10:09:12;;;;;;;;;;;20.00;99.90;;;;;;5;36016390;41266039;-88
2021/08/16 10:12:32;;;;;;;;;;;20.10;99.90;;;;;;5;36013229;42017802;-88
2021/08/16 10:15:53;;;;;;;;;;;20.10;99.90;;;;;;5;36015172;41268212;-88
2021/08/16 10:19:15;;;;;;;;;;;20.10;99.90;;;;;;5;36015154;41267311;-89
2021/08/16 10:22:39;;;;;;;;;;;20.00;99.90;;;;;;5;36013484;41266370;-88
2021/08/16 10:25:57;;;;;;;;;;;19.80;99.90;;;;;;5;36014030;41266731;-89
2021/08/16 10:29:18;;;;;;;;;;;19.50;99.90;;;;;;5;36014531;41266439;-89
2021/08/16 10:32:37;;;;;;;;;;;19.50;99.90;;;;;;5;36014124;41266748;-89
2021/08/16 10:35:52;;;;;;;;;;;19.50;99.90;;;;;;5;36013729;41266300;-88
2021/08/16 10:39:09;;;;;;;;;;;19.40;99.90;;;;;;5;36013232;41266926;-88
2021/08/16 10:42:37;;;;;;;;;;;19.40;99.90;;;;;;5;36015834;41265621;-89
2021/08/16 10:45:58;;;;;;;;;;;19.30;99.90;;;;;;5;36014136;42016875;-90
2021/08/16 10:49:13;;;;;;;;;;;19.30;99.90;;;;;;5;36016301;41265536;-90
2021/08/16 10:52:30;;;;;;;;;;;19.10;99.90;;;;;;5;36013795;41267294;-90
2021/08/16 10:55:51;;;;;;;;;;;19.00;99.90;;;;;;5;36014520;41267034;-89
2021/08/16 10:59:10;;;;;;;;;;;18.90;99.90;;;;;;5;36014458;41266120;-89
2021/08/16 11:02:25;;;;;;;;;;;18.80;99.90;;;;;;5;36013970;41265944;-88
2021/08/16 11:05:42;;;;;;;;;;;18.80;99.90;;;;;;5;36014772;41268630;-92
2021/08/16 11:09:05;;;;;;;;;;;18.70;99.90;;;;;;5;36013050;41266128;-92
2021/08/16 11:12:34;;;;;;;;;;;18.70;99.90;;;;;;5;36013141;41266876;-90
2021/08/16 11:15:49;;;;;;;;;;;18.80;99.90;;;;;;5;36013669;41266320;-90
2021/08/16 11:19:08;;;;;;;;;;;18.90;99.90;;;;;;5;36013262;42016960;-90
2021/08/16 11:22:28;;;;;;;;;;;19.00;99.90;;;;;;5;36013912;41267131;-91
2021/08/16 11:26:08;;;;;;;;;;;19.00;99.90;;;;;;5;36015075;41266212;-90
2021/08/16 11:29:23;;;;;;;;;;;19.10;99.90;;;;;;5;36013119;41265891;-91
2021/08/16 11:32:41;;;;;;;;;;;19.20;99.90;;;;;;5;36013235;41266127;-91
2021/08/16 11:36:08;;;;;;;;;;;19.20;99.90;;;;;;5;36014196;41268322;-91
2021/08/16 11:39:29;;;;;;;;;;;19.20;99.90;;;;;;5;36013082;41267198;-90
2021/08/16 11:42:44;;;;;;;;;;;19.20;99.90;;;;;;5;36015141;41266531;-91
2021/08/16 11:46:10;;;;;;;;;;;19.30;99.90;;;;;;5;36013595;41266491;-91
2021/08/16 11:49:30;;;;;;;;;;;19.30;99.90;;;;;;5;36014019;41266137;-91
2021/08/16 11:52:53;;;;;;;;;;;19.20;99.90;;;;;;5;36015424;42015999;-88
2021/08/16 11:56:07;;;;;;;;;;;19.20;99.90;;;;;;5;36014479;41266494;-89
2021/08/16 11:59:25;;;;;;;;;;;19.20;99.90;;;;;;5;36014620;41266074;-90
2021/08/16 12:02:44;;;;;;;;;;;19.20;99.90;;;;;;5;36013105;41265910;-89
2021/08/16 12:06:05;;;;;;;;;;;19.10;99.90;;;;;;5;36013868;41266843;-89
2021/08/16 12:09:19;;;;;;;;;;;19.00;99.90;;;;;;5;36013172;41265748;-89
2021/08/16 12:12:36;;;;;;;;;;;19.00;99.90;;;;;;5;36014390;41265253;-90
2021/08/16 12:15:56;;;;;;;;;;;18.90;99.90;;;;;;5;36014163;41265417;-90
2021/08/16 12:19:16;;;;;;;;;;;18.70;99.90;;;;;;5;36013581;41267346;-89
2021/08/16 12:22:30;;;;;;;;;;;18.60;99.90;;;;;;5;36014167;41266060;-90
2021/08/16 12:25:49;;;;;;;;;;;18.50;99.90;;;;;;5;36014260;42016255;-90
2021/08/16 12:29:17;;;;;;;;;;;18.50;99.90;;;;;;5;36014558;41266473;-91
2021/08/16 12:32:36;;;;;;;;;;;18.30;99.90;;;;;;5;36013858;41265713;-90
2021/08/16 12:35:57;;;;;;;;;;;18.20;99.90;;;;;;5;36014099;41266330;-90
2021/08/16 12:39:14;;;;;;;;;;;18.10;99.90;;;;;;5;36015186;41266513;-90
2021/08/16 12:42:34;;;;;;;;;;;18.10;99.90;;;;;;5;36014054;41266933;-91
2021/08/16 12:45:56;;;;;;;;;;;18.10;99.90;;;;;;5;36014838;41265219;-90
2021/08/16 12:49:21;;;;;;;;;;;18.10;99.90;;;;;;5;36014215;41266009;-91
2021/08/16 12:52:38;;;;;;;;;;;18.00;99.90;;;;;;5;36014055;41265843;-89
2021/08/16 12:55:57;;;;;;;;;;;18.10;99.90;;;;;;5;36015362;41265837;-90
2021/08/16 12:59:21;;;;;;;;;;;18.00;99.90;;;;;;5;36013645;42016113;-90
2021/08/16 13:02:35;;;;;;;;;;;17.90;99.90;;;;;;5;36013479;41265586;-90
2021/08/16 13:05:52;;;;;;;;;;;17.90;99.90;;;;;;5;36013693;41266427;-91
2021/08/16 13:09:12;;;;;;;;;;;18.00;99.90;;;;;;5;36013426;41267006;-91
2021/08/16 13:12:32;;;;;;;;;;;17.90;99.90;;;;;;5;36013114;41266514;-91
2021/08/16 13:15:46;;;;;;;;;;;17.90;99.90;;;;;;5;36013808;41265384;-90
2021/08/16 13:19:03;;;;;;;;;;;17.90;99.90;;;;;;5;36014985;41265420;-90
2021/08/16 13:22:22;;;;;;;;;;;17.90;99.90;;;;;;5;36013546;41266472;-90
2021/08/16 13:25:42;;;;;;;;;;;18.00;99.90;;;;;;5;36014906;41265904;-90
2021/08/16 13:28:56;;;;;;;;;;;18.00;99.90;;;;;;5;36013304;41266668;-90
2021/08/16 13:32:15;;;;;;;;;;;18.00;99.90;;;;;;5;36014113;42016448;-90
2021/08/16 13:35:34;;;;;;;;;;;17.90;99.90;;;;;;5;36013218;41267134;-89
2021/08/16 13:38:54;;;;;;;;;;;17.90;99.90;;;;;;5;36013468;41266421;-89
2021/08/16 13:42:08;;;;;;;;;;;17.90;99.90;;;;;;5;36014074;41266110;-88
2021/08/16 13:45:25;;;;;;;;;;;17.80;99.90;;;;;;5;36014323;41265795;-89
2021/08/16 13:48:47;;;;;;;;;;;17.80;99.90;;;;;;5;36013203;41266024;-89
2021/08/16 13:52:06;;;;;;;;;;;17.80;99.90;;;;;;5;36014199;41266376;-89
2021/08/16 13:55:20;;;;;;;;;;;17.80;99.90;;;;;;5;36013402;41265839;-91
2021/08/16 13:58:37;;;;;;;;;;;17.90;99.90;;;;;;5;36013777;41266087;-90
2021/08/16 14:01:58;;;;;;;;;;;17.90;99.90;;;;;;5;36014845;41265750;-90
2021/08/16 14:05:19;;;;;;;;;;;17.80;99.90;;;;;;5;36013235;42016585;-90
2021/08/16 14:08:34;;;;;;;;;;;17.80;99.90;;;;;;5;36014943;41266056;-91
2021/08/16 14:11:51;;;;;;;;;;;17.80;99.90;;;;;;5;36013263;41266154;-89
2021/08/16 14:15:11;;;;;;;;;;;17.80;99.90;;;;;;5;36013725;41266700;-90
2021/08/16 14:18:31;;;;;;;;;;;17.60;99.90;;;;;;5;36015984;41266636;-89
2021/08/16 14:21:45;;;;;;;;;;;17.50;99.90;;;;;;5;36014723;41267665;-89
2021/08/16 14:25:06;;;;;;;;;;;17.50;99.90;;;;;;5;36013692;41266829;-89
2021/08/16 14:28:25;;;;;;;;;;;17.40;99.90;;;;;;5;36013370;41266907;-91
2021/08/16 14:31:44;;;;;;;;;;;17.30;99.90;;;;;;5;36014422;41265876;-91
2021/08/16 14:35:01;;;;;;;;;;;17.20;99.90;;;;;;5;36013405;41267121;-90
2021/08/16 14:38:20;;;;;;;;;;;17.00;99.90;;;;;;5;36013492;42016030;-90
2021/08/16 14:41:39;;;;;;;;;;;16.90;99.90;;;;;;5;36013656;41266552;-90
2021/08/16 14:44:59;;;;;;;;;;;16.70;99.90;;;;;;5;36014445;41266361;-89
2021/08/16 14:48:13;;;;;;;;;;;16.60;99.90;;;;;;5;36013931;41266129;-90
2021/08/16 14:51:30;;;;;;;;;;;16.60;99.90;;;;;;5;36015165;41265477;-89
2021/08/16 14:54:49;;;;;;;;;;;16.60;99.90;;;;;;5;36014609;41266096;-87
2021/08/16 14:58:09;;;;;;;;;;;16.60;99.90;;;;;;5;36014892;41265302;-87
2021/08/16 15:01:24;;;;;;;;;;;16.80;99.90;;;;;;5;36013629;41266718;-88
2021/08/16 15:04:41;;;;;;;;;;;16.80;99.90;;;;;;5;36014616;41265328;-88
2021/08/16 15:08:00;;;;;;;;;;;16.80;99.90;;;;;;5;36013166;41266609;-88
2021/08/16 15:11:21;;;;;;;;;;;16.80;99.90;;;;;;5;36013750;42015840;-88
2021/08/16 15:14:35;;;;;;;;;;;16.80;99.90;;;;;;5;36014577;41266571;-88
2021/08/16 15:17:54;;;;;;;;;;;16.70;99.90;;;;;;5;36013772;41267843;-88
2021/08/16 15:21:14;;;;;;;;;;;16.80;99.90;;;;;;5;36014354;41268127;-87
2021/08/16 15:24:34;;;;;;;;;;;16.80;99.90;;;;;;5;36013442;41266756;-88
2021/08/16 15:27:50;;;;;;;;;;;16.80;99.90;;;;;;5;36013251;41269582;-88
2021/08/16 15:31:08;;;;;;;;;;;16.80;99.90;;;;;;5;36014730;41268015;-88
2021/08/16 15:34:27;;;;;;;;;;;16.80;99.90;;;;;;5;36014119;41267204;-87
2021/08/16 15:37:46;;;;;;;;;;;16.80;99.90;;;;;;5;36016079;41267425;-89
2021/08/16 15:41:01;;;;;;;;;;;16.90;99.90;;;;;;5;36015045;41266255;-88
2021/08/16 15:44:19;;;;;;;;;;;17.10;99.90;;;;;;5;36014567;42016783;-88
2021/08/16 15:47:39;;;;;;;;;;;17.20;99.90;;;;;;5;36015480;41265704;-88
2021/08/16 15:50:58;;;;;;;;;;;17.50;99.90;;;;;;5;36013907;41266253;-88
2021/08/16 15:54:13;;;;;;;;;;;17.90;99.90;;;;;;5;36014224;41266163;-88
2021/08/16 15:57:30;;;;;;;;;;;18.20;99.90;;;;;;5;36014171;41266281;-89
2021/08/16 16:00:49;;;;;;;;;;;18.60;99.90;;;;;;5;36013128;41266584;-89
2021/08/16 16:04:09;;;;;;;;;;;19.00;99.90;;;;;;5;36014412;41265102;-88
2021/08/16 16:07:23;;;;;;;;;;;19.40;99.90;;;;;;5;36013335;41265838;-89
2021/08/16 16:10:41;;;;;;;;;;;19.70;99.90;;;;;;5;36015688;41266205;-90
2021/08/16 16:14:01;;;;;;;;;;;20.20;99.90;;;;;;5;36013714;41267364;-90
2021/08/16 16:17:22;;;;;;;;;;;20.90;99.90;;;;;;5;36013983;42017829;-90
2021/08/16 16:20:36;;;;;;;;;;;21.50;99.90;;;;;;5;36013514;41266809;-90
2021/08/16 16:23:53;;;;;;;;;;;21.70;99.90;;;;;;5;36013888;41266954;-90
2021/08/16 16:27:13;;;;;;;;;;;21.90;99.90;;;;;;5;36013976;41265981;-90
2021/08/16 16:30:32;;;;;;;;;;;22.00;99.90;;;;;;5;36013494;41265554;-90
2021/08/16 16:33:47;;;;;;;;;;;22.10;99.90;;;;;;5;36015203;41266397;-90
2021/08/16 16:37:04;;;;;;;;;;;22.20;99.90;;;;;;5;36013366;41267231;-90
2021/08/16 16:40:23;;;;;;;;;;;22.00;98.40;;;;;;5;36013330;41267035;-90
2021/08/16 16:43:43;;;;;;;;;;;21.50;93.90;;;;;;5;36013997;41266077;-91
2021/08/16 16:46:57;;;;;;;;;;;21.20;96.90;;;;;;5;36013883;41267004;-90
2021/08/16 16:50:18;;;;;;;;;;;21.00;94.00;;;;;;5;36013431;42017738;-91
2021/08/16 16:53:38;;;;;;;;;;;20.70;96.30;;;;;;5;36014363;41266173;-91
2021/08/16 16:56:58;;;;;;;;;;;20.50;95.70;;;;;;5;36012474;41266803;-91
2021/08/16 17:00:13;;;;;;;;;;;20.30;95.50;;;;;;5;36015187;41266876;-92
2021/08/16 17:03:30;;;;;;;;;;;20.10;96.30;;;;;;5;36014385;41267719;-90
2021/08/16 17:06:52;;;;;;;;;;;19.90;94.10;;;;;;5;36015052;41266380;-91
2021/08/16 17:10:13;;;;;;;;;;;19.90;96.40;;;;;;5;36013578;41266819;-91
2021/08/16 17:13:29;;;;;;;;;;;19.80;94.70;;;;;;5;36014818;41265831;-91
2021/08/16 17:16:49;;;;;;;;;;;19.80;94.00;;;;;;5;36014396;41268739;-89
2021/08/16 17:20:10;;;;;;;;;;;19.50;97.70;;;;;;5;36013436;41266106;-90
2021/08/16 17:23:33;;;;;;;;;;;19.80;95.10;;;;;;5;36013759;42015849;-89
2021/08/16 17:26:47;;;;;;;;;;;19.60;94.90;;;;;;5;36014969;41265301;-89
2021/08/16 17:30:05;;;;;;;;;;;19.70;95.50;;;;;;5;36013707;41265907;-89
2021/08/16 17:33:25;;;;;;;;;;;19.70;95.10;;;;;;5;36013697;41266210;-89
2021/08/16 17:36:44;;;;;;;;;;;19.60;95.30;;;;;;5;36014756;41266485;-89
2021/08/16 17:39:58;;;;;;;;;;;19.50;95.90;;;;;;5;36014549;41265489;-90
2021/08/16 17:43:15;;;;;;;;;;;19.50;97.80;;;;;;5;36014531;41266786;-89
2021/08/16 17:46:35;;;;;;;;;;;19.50;99.90;;;;;;5;36015615;41265740;-92
2021/08/16 17:49:54;;;;;;;;;;;19.40;99.20;;;;;;5;36014002;41266179;-92
2021/08/16 17:53:09;;;;;;;;;;;19.30;99.90;;;;;;5;36013017;41265808;-93
2021/08/16 17:56:28;;;;;;;;;;;19.10;99.90;;;;;;5;36013385;42017622;-93
2021/08/16 17:59:47;;;;;;;;;;;19.10;99.90;;;;;;5;36014852;41266023;-94
2021/08/16 18:03:07;;;;;;;;;;;19.10;99.90;;;;;;5;36014659;41266626;-92
2021/08/16 18:06:21;;;;;;;;;;;19.00;99.90;;;;;;5;36016981;41265830;-92
2021/08/16 18:09:38;;;;;;;;;;;18.90;99.90;;;;;;5;36014269;41265392;-93
2021/08/16 18:12:58;;;;;;;;;;;18.80;99.90;;;;;;5;36013439;41268668;-92
2021/08/16 18:16:17;;;;;;;;;;;18.70;99.90;;;;;;5;36015394;41266853;-89
2021/08/16 18:19:31;;;;;;;;;;;18.70;99.90;;;;;;5;36013736;41266726;-88
2021/08/16 18:22:49;;;;;;;;;;;18.40;99.90;;;;;;5;36013683;41267642;-90
2021/08/16 18:26:08;;;;;;;;;;;18.30;99.90;;;;;;5;36013923;41266625;-89
2021/08/16 18:29:29;;;;;;;;;;;18.20;99.90;;;;;;5;36014154;42017202;-90
2021/08/16 18:32:43;;;;;;;;;;;17.90;99.90;;;;;;5;36014338;41265714;-90
2021/08/16 18:36:01;;;;;;;;;;;17.80;99.90;;;;;;5;36014355;41266420;-93
2021/08/16 18:39:23;;;;;;;;;;;17.70;99.90;;;;;;5;36014438;41265641;-94
2021/08/16 18:42:42;;;;;;;;;;;17.40;99.90;;;;;;5;36015148;41266331;-91
2021/08/16 18:45:57;;;;;;;;;;;17.40;99.90;;;;;;5;36014308;41265999;-91
2021/08/16 18:49:14;;;;;;;;;;;17.30;99.90;;;;;;5;36013969;41267329;-91
2021/08/16 18:52:34;;;;;;;;;;;17.20;99.90;;;;;;5;36014189;41266161;-91
2021/08/16 18:55:54;;;;;;;;;;;17.20;99.90;;;;;;5;36014575;41265546;-91
2021/08/16 18:59:08;;;;;;;;;;;17.20;99.90;;;;;;5;36013459;41267143;-91
2021/08/16 19:02:26;;;;;;;;;;;17.30;99.90;;;;;;5;36013139;42016121;-93
2021/08/16 19:05:46;;;;;;;;;;;16.20;99.90;;;;;;5;36013845;41266716;-93
2021/08/16 19:09:05;;;;;;;;;;;17.30;99.90;;;;;;5;36013647;41265569;-94
2021/08/16 19:12:20;;;;;;;;;;;16.30;99.90;;;;;;5;36013464;41265720;-95
2021/08/16 19:15:37;;;;;;;;;;;17.40;99.90;;;;;;5;36012867;41266250;-95
2021/08/16 19:18:56;;;;;;;;;;;17.40;99.90;;;;;;5;36012666;41266399;-95
2021/08/16 19:22:17;;;;;;;;;;;17.40;99.90;;;;;;5;36014080;41265236;-92
2021/08/16 19:25:31;;;;;;;;;;;17.30;99.90;;;;;;5;36013187;41265899;-95
2021/08/16 19:28:48;;;;;;;;;;;17.20;99.90;;;;;;5;36012855;41266371;-95
2021/08/16 19:32:08;;;;;;;;;;;17.20;99.90;;;;;;5;36012914;41266496;-95
2021/08/16 19:35:29;;;;;;;;;;;17.10;99.90;;;;;;5;36014336;42015128;-91
2021/08/16 19:38:44;;;;;;;;;;;17.00;99.90;;;;;;5;36013649;41265083;-94
2021/08/16 19:42:01;;;;;;;;;;;17.00;99.90;;;;;;5;36013707;41266722;-95
2021/08/16 19:45:20;;;;;;;;;;;17.00;99.90;;;;;;5;36013940;41265459;-94
2021/08/16 19:48:40;;;;;;;;;;;17.00;99.90;;;;;;5;36018681;41274508;-92
2021/08/16 19:51:55;;;;;;;;;;;18.30;99.90;;;;;;5;36024202;41275930;-92
2021/08/16 19:55:12;;;;;;;;;;;16.80;99.90;;;;;;5;36021352;41274078;-92
2021/08/16 19:58:31;;;;;;;;;;;16.70;99.90;;;;;;5;36021506;41272625;-92
2021/08/16 20:01:51;;;;;;;;;;;16.60;99.90;;;;;;5;36020662;41274451;-92
2021/08/16 20:05:05;;;;;;;;;;;16.50;99.90;;;;;;5;36020343;41273045;-92
2021/08/16 20:08:30;;;;;;;;;;;15.60;99.90;;;;;;5;36019742;42022874;-92
2021/08/16 20:11:49;;;;;;;;;;;16.40;99.90;;;;;;5;36020856;41272140;-92
2021/08/16 20:15:09;;;;;;;;;;;16.40;99.90;;;;;;5;36022029;41275688;-92
2021/08/16 20:18:23;;;;;;;;;;;16.60;99.90;;;;;;5;36021220;41272931;-91
2021/08/16 20:21:42;;;;;;;;;;;16.50;99.90;;;;;;5;36019705;41276966;-92
2021/08/16 20:25:02;;;;;;;;;;;16.60;99.90;;;;;;5;36020057;41275333;-92
2021/08/16 20:28:22;;;;;;;;;;;16.70;99.90;;;;;;5;36019972;41272703;-92
2021/08/16 20:31:37;;;;;;;;;;;16.70;99.90;;;;;;5;36019896;41271285;-92
2021/08/16 20:34:54;;;;;;;;;;;15.70;99.90;;;;;;5;36021158;41273469;-91
2021/08/16 20:38:14;;;;;;;;;;;16.80;99.90;;;;;;5;36019278;41273965;-92
2021/08/16 20:41:35;;;;;;;;;;;16.80;99.90;;;;;;5;36020160;42022354;-91
2021/08/16 20:44:49;;;;;;;;;;;16.70;99.90;;;;;;5;36018550;41273329;-91
2021/08/16 20:48:06;;;;;;;;;;;16.80;99.90;;;;;;5;36018446;41275062;-91
2021/08/16 20:51:26;;;;;;;;;;;16.90;99.90;;;;;;5;36021743;41272432;-92
2021/08/16 20:54:46;;;;;;;;;;;16.90;99.90;;;;;;5;36019746;41273741;-92
2021/08/16 20:58:00;;;;;;;;;;;16.80;99.90;;;;;;5;36019260;41272653;-92
2021/08/16 21:01:17;;;;;;;;;;;16.90;99.90;;;;;;5;36019330;41275427;-91
2021/08/16 21:04:37;;;;;;;;;;;17.00;99.90;;;;;;5;36016440;41272971;-91
2021/08/16 21:07:56;;;;;;;;;;;16.90;99.90;;;;;;5;36014682;41270562;-92
2021/08/16 21:11:11;;;;;;;;;;;16.90;99.90;;;;;;5;36017228;41266370;-91
2021/08/16 21:14:29;;;;;;;;;;;18.40;99.90;;;;;;5;36014415;42021054;-92
2021/08/16 21:17:49;;;;;;;;;;;17.00;99.90;;;;;;5;36014681;41267831;-91
2021/08/16 21:21:08;;;;;;;;;;;17.00;99.90;;;;;;5;36015526;41267096;-91
2021/08/16 21:24:23;;;;;;;;;;;17.10;99.90;;;;;;5;36014760;41267280;-91